N35542 KRME-KSYR
Flight info
| Callsign | N35542 |
|---|---|
| Flight time | 0h 12m |
| Altitude | VFR |
| Route | |
| Aircraft | SR22/L-VGD/C |
Departure
| Time | 2026-04-24 00:36 |
|---|---|
| Airport | Griffiss International Airport (KRME) |
Arrival
| Time | 2026-04-24 00:48 |
|---|---|
| Airport | Syracuse Hancock International Airport (KSYR) |
| Time | Latitude | Longitude | Altitude | Speed | Heading |
|---|---|---|---|---|---|
| 2026-04-24 00:28 | 43.21782 | -75.39709 | 472 ft | 0 kts | 316° |
| 2026-04-24 00:31 | 43.21786 | -75.39717 | 472 ft | 6 kts | 306° |
| 2026-04-24 00:31 | 43.21809 | -75.39740 | 471 ft | 0 kts | 71° |
| 2026-04-24 00:31 | 43.21821 | -75.39716 | 470 ft | 7 kts | 60° |
| 2026-04-24 00:32 | 43.21871 | -75.39638 | 468 ft | 15 kts | 45° |
| 2026-04-24 00:32 | 43.21935 | -75.39544 | 466 ft | 11 kts | 50° |
| 2026-04-24 00:32 | 43.21988 | -75.39477 | 465 ft | 13 kts | 41° |
| 2026-04-24 00:32 | 43.22059 | -75.39381 | 465 ft | 13 kts | 41° |
| 2026-04-24 00:33 | 43.22089 | -75.39365 | 467 ft | 0 kts | 25° |
| 2026-04-24 00:33 | 43.22136 | -75.39355 | 470 ft | 6 kts | 41° |
| 2026-04-24 00:33 | 43.22149 | -75.39333 | 471 ft | 0 kts | 59° |
| 2026-04-24 00:34 | 43.22191 | -75.39254 | 473 ft | 16 kts | 53° |
| 2026-04-24 00:34 | 43.22260 | -75.39174 | 479 ft | 9 kts | 17° |
| 2026-04-24 00:34 | 43.22299 | -75.39180 | 482 ft | 5 kts | 334° |
| 2026-04-24 00:35 | 43.22461 | -75.39416 | 486 ft | 65 kts | 318° |
| 2026-04-24 00:35 | 43.22883 | -75.40022 | 543 ft | 103 kts | 312° |
| 2026-04-24 00:35 | 43.23454 | -75.40796 | 690 ft | 121 kts | 315° |
| 2026-04-24 00:35 | 43.23937 | -75.41759 | 988 ft | 124 kts | 288° |
| 2026-04-24 00:36 | 43.23836 | -75.42999 | 1173 ft | 137 kts | 253° |
| 2026-04-24 00:36 | 43.23449 | -75.44194 | 1413 ft | 141 kts | 249° |
| 2026-04-24 00:36 | 43.23013 | -75.45423 | 1660 ft | 143 kts | 249° |
| 2026-04-24 00:36 | 43.22584 | -75.46659 | 1903 ft | 143 kts | 253° |
| 2026-04-24 00:37 | 43.22239 | -75.47943 | 2151 ft | 143 kts | 258° |
| 2026-04-24 00:37 | 43.21951 | -75.49266 | 2397 ft | 143 kts | 261° |
| 2026-04-24 00:37 | 43.21699 | -75.50574 | 2640 ft | 142 kts | 263° |
| 2026-04-24 00:37 | 43.21457 | -75.51907 | 2889 ft | 143 kts | 264° |
| 2026-04-24 00:38 | 43.21222 | -75.53242 | 3130 ft | 143 kts | 265° |
| 2026-04-24 00:38 | 43.20988 | -75.54583 | 3379 ft | 143 kts | 265° |
| 2026-04-24 00:38 | 43.20734 | -75.55927 | 3632 ft | 142 kts | 263° |
| 2026-04-24 00:38 | 43.20469 | -75.57232 | 3875 ft | 141 kts | 264° |
| 2026-04-24 00:39 | 43.20201 | -75.58519 | 4076 ft | 143 kts | 264° |
| 2026-04-24 00:39 | 43.19913 | -75.59976 | 3845 ft | 169 kts | 263° |
| 2026-04-24 00:39 | 43.19579 | -75.61578 | 3709 ft | 174 kts | 262° |
| 2026-04-24 00:39 | 43.19231 | -75.63221 | 3574 ft | 176 kts | 261° |
| 2026-04-24 00:40 | 43.18889 | -75.64848 | 3440 ft | 177 kts | 261° |
| 2026-04-24 00:40 | 43.18549 | -75.66461 | 3313 ft | 178 kts | 260° |
| 2026-04-24 00:40 | 43.18216 | -75.68037 | 3188 ft | 167 kts | 260° |
| 2026-04-24 00:40 | 43.17897 | -75.69540 | 3018 ft | 159 kts | 261° |
| 2026-04-24 00:41 | 43.17616 | -75.70875 | 2855 ft | 156 kts | 261° |
| 2026-04-24 00:41 | 43.17344 | -75.72182 | 2689 ft | 154 kts | 260° |
| 2026-04-24 00:41 | 43.17048 | -75.73566 | 2494 ft | 145 kts | 261° |
| 2026-04-24 00:41 | 43.16775 | -75.74862 | 2284 ft | 139 kts | 261° |
| 2026-04-24 00:42 | 43.16507 | -75.76141 | 2056 ft | 136 kts | 261° |
| 2026-04-24 00:42 | 43.16251 | -75.77356 | 1829 ft | 134 kts | 261° |
| 2026-04-24 00:42 | 43.15995 | -75.78580 | 1596 ft | 133 kts | 260° |
| 2026-04-24 00:42 | 43.15735 | -75.79818 | 1411 ft | 128 kts | 259° |
| 2026-04-24 00:43 | 43.15490 | -75.80965 | 1401 ft | 128 kts | 258° |
| 2026-04-24 00:43 | 43.15233 | -75.82172 | 1403 ft | 134 kts | 258° |
| 2026-04-24 00:43 | 43.14962 | -75.83446 | 1399 ft | 139 kts | 258° |
| 2026-04-24 00:43 | 43.14694 | -75.84705 | 1399 ft | 142 kts | 258° |
| 2026-04-24 00:44 | 43.14413 | -75.86025 | 1392 ft | 144 kts | 258° |
| 2026-04-24 00:44 | 43.14069 | -75.87347 | 1388 ft | 147 kts | 250° |
| 2026-04-24 00:44 | 43.13628 | -75.88633 | 1392 ft | 148 kts | 249° |
| 2026-04-24 00:44 | 43.13188 | -75.89893 | 1391 ft | 149 kts | 249° |
| 2026-04-24 00:45 | 43.12742 | -75.91170 | 1392 ft | 150 kts | 249° |
| 2026-04-24 00:45 | 43.12295 | -75.92458 | 1391 ft | 150 kts | 250° |
| 2026-04-24 00:45 | 43.12043 | -75.93816 | 1397 ft | 147 kts | 264° |
| 2026-04-24 00:45 | 43.11872 | -75.95211 | 1395 ft | 148 kts | 265° |
| 2026-04-24 00:46 | 43.11713 | -75.96589 | 1354 ft | 150 kts | 265° |
| 2026-04-24 00:46 | 43.11549 | -75.97971 | 1363 ft | 149 kts | 265° |
| 2026-04-24 00:46 | 43.11391 | -75.99377 | 1315 ft | 149 kts | 265° |
| 2026-04-24 00:46 | 43.11270 | -76.00796 | 1247 ft | 148 kts | 269° |
| 2026-04-24 00:47 | 43.11195 | -76.02182 | 1191 ft | 146 kts | 271° |
| 2026-04-24 00:47 | 43.11152 | -76.03590 | 1080 ft | 147 kts | 271° |
| 2026-04-24 00:47 | 43.11092 | -76.04989 | 930 ft | 146 kts | 271° |
| 2026-04-24 00:47 | 43.11050 | -76.06333 | 764 ft | 142 kts | 270° |
| 2026-04-24 00:48 | 43.11002 | -76.07629 | 635 ft | 135 kts | 270° |
| 2026-04-24 00:48 | 43.10949 | -76.08873 | 484 ft | 126 kts | 269° |
| 2026-04-24 00:48 | 43.10911 | -76.09944 | 403 ft | 92 kts | 270° |
| 2026-04-24 00:48 | 43.10896 | -76.10482 | 407 ft | 44 kts | 269° |
| 2026-04-24 00:49 | 43.10936 | -76.10568 | 409 ft | 23 kts | 356° |
| 2026-04-24 00:49 | 43.10986 | -76.10570 | 409 ft | 0 kts | 348° |
| 2026-04-24 00:50 | 43.10994 | -76.10585 | 409 ft | 5 kts | 303° |
| 2026-04-24 00:50 | 43.11005 | -76.10687 | 411 ft | 15 kts | 277° |
| 2026-04-24 00:50 | 43.11004 | -76.10825 | 414 ft | 13 kts | 268° |
| 2026-04-24 00:51 | 43.11000 | -76.10945 | 414 ft | 14 kts | 268° |
| 2026-04-24 00:51 | 43.10994 | -76.11088 | 414 ft | 15 kts | 266° |
| 2026-04-24 00:51 | 43.10990 | -76.11240 | 414 ft | 15 kts | 268° |
| 2026-04-24 00:51 | 43.10986 | -76.11390 | 415 ft | 15 kts | 267° |
| 2026-04-24 00:52 | 43.10981 | -76.11530 | 417 ft | 14 kts | 267° |
| 2026-04-24 00:52 | 43.10976 | -76.11680 | 417 ft | 17 kts | 268° |
| 2026-04-24 00:52 | 43.10969 | -76.11877 | 417 ft | 23 kts | 268° |
| 2026-04-24 00:52 | 43.10963 | -76.12112 | 418 ft | 24 kts | 268° |
| 2026-04-24 00:53 | 43.10954 | -76.12342 | 417 ft | 24 kts | 265° |
| 2026-04-24 00:53 | 43.10947 | -76.12573 | 417 ft | 24 kts | 268° |
| 2026-04-24 00:53 | 43.10938 | -76.12800 | 417 ft | 23 kts | 267° |
| 2026-04-24 00:53 | 43.10976 | -76.12978 | 417 ft | 18 kts | 319° |
| 2026-04-24 00:54 | 43.11075 | -76.13091 | 416 ft | 18 kts | 320° |
| 2026-04-24 00:54 | 43.11116 | -76.13178 | 414 ft | 0 kts | 281° |